Time,TemperatureF,DewpointF,PressureIn,WindDirection,WindDirectionDegrees,WindSpeedMPH,WindSpeedGustMPH,Humidity,HourlyPrecipIn,Conditions,Clouds,dailyrainin,SoftwareType,DateUTC
2013-05-17 00:02:00,74.0,36.0,-100.00,NNW,328,6.0,16.0,25,0.00,,,0.00,,2013-05-17 00:02:00,
2013-05-17 00:13:00,74.0,36.0,-100.00,NNW,328,6.0,16.0,25,0.00,,,0.00,,2013-05-17 00:13:00,
2013-05-17 00:22:00,74.0,36.0,-100.00,NNW,328,6.0,16.0,25,0.00,,,0.00,,2013-05-17 00:22:00,
2013-05-17 00:53:00,73.0,39.0,-100.00,NNE,14,4.0,14.0,29,0.00,,,0.00,,2013-05-17 00:53:00,
2013-05-17 01:03:00,73.0,39.0,-100.00,NNE,14,4.0,14.0,29,0.00,,,0.00,,2013-05-17 01:03:00,
2013-05-17 01:12:00,73.0,39.0,-100.00,NNE,14,4.0,14.0,29,0.00,,,0.00,,2013-05-17 01:12:00,
2013-05-17 01:23:00,73.0,39.0,-100.00,NNE,14,4.0,14.0,29,0.00,,,0.00,,2013-05-17 01:23:00,
2013-05-17 01:52:00,68.0,46.0,-100.00,South,182,2.0,12.0,46,0.00,,,0.00,,2013-05-17 01:52:00,
2013-05-17 02:02:00,68.0,46.0,-100.00,South,182,2.0,12.0,46,0.00,,,0.00,,2013-05-17 02:02:00,
2013-05-17 02:11:00,68.0,46.0,-100.00,South,182,2.0,12.0,46,0.00,,,0.00,,2013-05-17 02:11:00,
2013-05-17 02:21:00,68.0,46.0,-100.00,South,182,2.0,12.0,46,0.00,,,0.00,,2013-05-17 02:21:00,
2013-05-17 02:53:00,58.0,48.0,-100.00,North,353,4.0,13.0,69,0.00,,,0.00,,2013-05-17 02:53:00,
2013-05-17 03:01:00,58.0,48.0,-100.00,North,353,4.0,13.0,69,0.00,,,0.00,,2013-05-17 03:01:00,
2013-05-17 03:11:00,58.0,48.0,-100.00,North,353,4.0,13.0,69,0.00,,,0.00,,2013-05-17 03:11:00,
2013-05-17 03:22:00,58.0,48.0,-100.00,North,353,4.0,13.0,69,0.00,,,0.00,,2013-05-17 03:22:00,
2013-05-17 03:53:00,54.0,47.0,-100.00,North,349,3.0,11.0,77,0.00,,,-99.99,,2013-05-17 03:53:00,
2013-05-17 04:02:00,54.0,47.0,-100.00,North,349,3.0,11.0,77,0.00,,,-99.99,,2013-05-17 04:02:00,
2013-05-17 04:13:00,54.0,47.0,-100.00,North,349,3.0,11.0,77,0.00,,,-99.99,,2013-05-17 04:13:00,
2013-05-17 04:23:00,54.0,47.0,-100.00,North,349,3.0,11.0,77,0.00,,,-99.99,,2013-05-17 04:23:00,
2013-05-17 04:53:00,51.0,47.0,-100.00,WNW,292,0.0,12.0,85,0.00,,,0.00,,2013-05-17 04:53:00,
2013-05-17 05:02:00,51.0,47.0,-100.00,WNW,292,0.0,12.0,85,0.00,,,0.00,,2013-05-17 05:02:00,
2013-05-17 05:13:00,51.0,47.0,-100.00,WNW,292,0.0,12.0,85,0.00,,,0.00,,2013-05-17 05:13:00,
2013-05-17 05:21:00,51.0,47.0,-100.00,WNW,292,0.0,12.0,85,0.00,,,0.00,,2013-05-17 05:21:00,
2013-05-17 05:52:00,51.0,48.0,-100.00,West,279,0.0,9.0,89,0.00,,,0.00,,2013-05-17 05:52:00,
2013-05-17 06:01:00,51.0,48.0,-100.00,West,279,0.0,9.0,89,0.00,,,0.00,,2013-05-17 06:01:00,
2013-05-17 06:11:00,51.0,48.0,-100.00,West,279,0.0,9.0,89,0.00,,,0.00,,2013-05-17 06:11:00,
2013-05-17 06:21:00,51.0,48.0,-100.00,West,279,0.0,9.0,89,0.00,,,0.00,,2013-05-17 06:21:00,
2013-05-17 06:52:00,48.0,46.0,-100.00,North,356,0.0,5.0,93,0.00,,,0.00,,2013-05-17 06:52:00,
2013-05-17 07:02:00,48.0,46.0,-100.00,North,356,0.0,5.0,93,0.00,,,0.00,,2013-05-17 07:02:00,
2013-05-17 07:11:00,48.0,46.0,-100.00,North,356,0.0,5.0,93,0.00,,,0.00,,2013-05-17 07:11:00,
2013-05-17 07:21:00,48.0,46.0,-100.00,North,356,0.0,5.0,93,0.00,,,0.00,,2013-05-17 07:21:00,
2013-05-17 07:53:00,49.0,47.0,-100.00,NNW,345,0.0,0.0,94,0.00,,,0.00,,2013-05-17 07:53:00,
2013-05-17 08:02:00,49.0,47.0,-100.00,NNW,345,0.0,0.0,94,0.00,,,0.00,,2013-05-17 08:02:00,
2013-05-17 08:12:00,49.0,47.0,-100.00,NNW,345,0.0,0.0,94,0.00,,,0.00,,2013-05-17 08:12:00,
2013-05-17 08:22:00,49.0,47.0,-100.00,NNW,345,0.0,0.0,94,0.00,,,0.00,,2013-05-17 08:22:00,
2013-05-17 08:52:00,51.0,43.0,-100.00,NW,321,1.0,0.0,74,0.00,,,0.00,,2013-05-17 08:52:00,
2013-05-17 09:02:00,51.0,43.0,-100.00,NW,321,1.0,0.0,74,0.00,,,0.00,,2013-05-17 09:02:00,
2013-05-17 09:12:00,51.0,43.0,-100.00,NW,321,1.0,0.0,74,0.00,,,0.00,,2013-05-17 09:12:00,
2013-05-17 09:22:00,51.0,43.0,-100.00,NW,321,1.0,0.0,74,0.00,,,0.00,,2013-05-17 09:22:00,
2013-05-17 09:53:00,52.0,43.0,-100.00,WNW,292,0.0,8.0,71,0.00,,,0.00,,2013-05-17 09:53:00,
2013-05-17 10:03:00,52.0,43.0,-100.00,WNW,292,0.0,8.0,71,0.00,,,0.00,,2013-05-17 10:03:00,
2013-05-17 10:12:00,52.0,43.0,-100.00,WNW,292,0.0,8.0,71,0.00,,,0.00,,2013-05-17 10:12:00,
2013-05-17 10:23:00,52.0,43.0,-100.00,WNW,292,0.0,8.0,71,0.00,,,0.00,,2013-05-17 10:23:00,
2013-05-17 10:54:00,50.0,41.0,-100.00,NW,315,0.0,11.0,71,0.00,,,0.00,,2013-05-17 10:54:00,
2013-05-17 11:02:00,50.0,41.0,-100.00,NW,315,0.0,11.0,71,0.00,,,0.00,,2013-05-17 11:02:00,
2013-05-17 11:12:00,50.0,41.0,-100.00,NW,315,0.0,11.0,71,0.00,,,0.00,,2013-05-17 11:12:00,
2013-05-17 11:22:00,50.0,41.0,-100.00,NW,315,0.0,11.0,71,0.00,,,0.00,,2013-05-17 11:22:00,
2013-05-17 11:53:00,48.0,39.0,-100.00,SE,138,0.0,0.0,71,0.00,,,0.00,,2013-05-17 11:53:00,
2013-05-17 12:03:00,48.0,39.0,-100.00,SE,138,0.0,0.0,71,0.00,,,0.00,,2013-05-17 12:03:00,
2013-05-17 12:12:00,48.0,39.0,-100.00,SE,138,0.0,0.0,71,0.00,,,0.00,,2013-05-17 12:12:00,
2013-05-17 12:23:00,48.0,39.0,-100.00,SE,138,0.0,0.0,71,0.00,,,0.00,,2013-05-17 12:23:00,
2013-05-17 12:53:00,49.0,40.0,-100.00,SE,133,0.0,0.0,71,0.00,,,0.00,,2013-05-17 12:53:00,
2013-05-17 13:03:00,49.0,40.0,-100.00,SE,133,0.0,0.0,71,0.00,,,0.00,,2013-05-17 13:03:00,
2013-05-17 13:12:00,49.0,40.0,-100.00,SE,133,0.0,0.0,71,0.00,,,0.00,,2013-05-17 13:12:00,
2013-05-17 13:23:00,49.0,40.0,-100.00,SE,133,0.0,0.0,71,0.00,,,0.00,,2013-05-17 13:23:00,
2013-05-17 13:52:00,48.0,39.0,-100.00,SE,129,0.0,0.0,70,0.00,,,0.00,,2013-05-17 13:52:00,
2013-05-17 14:02:00,48.0,39.0,-100.00,SE,129,0.0,0.0,70,0.00,,,0.00,,2013-05-17 14:02:00,
2013-05-17 14:12:00,48.0,39.0,-100.00,SE,129,0.0,0.0,70,0.00,,,0.00,,2013-05-17 14:12:00,
2013-05-17 14:22:00,48.0,39.0,-100.00,SE,129,0.0,0.0,70,0.00,,,0.00,,2013-05-17 14:22:00,
2013-05-17 14:53:00,53.0,40.0,-100.00,NE,50,0.0,0.0,61,0.00,,,0.00,,2013-05-17 14:53:00,
2013-05-17 15:03:00,53.0,40.0,-100.00,NE,50,0.0,0.0,61,0.00,,,0.00,,2013-05-17 15:03:00,
2013-05-17 15:13:00,53.0,40.0,-100.00,NE,50,0.0,0.0,61,0.00,,,0.00,,2013-05-17 15:13:00,
2013-05-17 15:25:00,53.0,40.0,-100.00,NE,50,0.0,0.0,61,0.00,,,0.00,,2013-05-17 15:25:00,
2013-05-17 15:57:00,58.0,42.0,-100.00,NNW,339,2.0,9.0,56,0.00,,,0.00,,2013-05-17 15:57:00,
2013-05-17 16:07:00,58.0,42.0,-100.00,NNW,339,2.0,9.0,56,0.00,,,0.00,,2013-05-17 16:07:00,
2013-05-17 16:13:00,58.0,42.0,-100.00,NNW,339,2.0,9.0,56,0.00,,,0.00,,2013-05-17 16:13:00,
2013-05-17 16:26:00,58.0,42.0,-100.00,NNW,339,2.0,9.0,56,0.00,,,0.00,,2013-05-17 16:26:00,
2013-05-17 16:56:00,64.0,40.0,-100.00,North,4,5.0,12.0,41,0.00,,,0.00,,2013-05-17 16:56:00,
2013-05-17 17:08:00,64.0,40.0,-100.00,North,4,5.0,12.0,41,0.00,,,0.00,,2013-05-17 17:08:00,
2013-05-17 18:00:00,69.0,36.0,-100.00,ENE,61,4.0,12.0,30,0.00,,,0.00,,2013-05-17 18:00:00,
2013-05-17 18:08:00,69.0,36.0,-100.00,ENE,61,4.0,12.0,30,0.00,,,0.00,,2013-05-17 18:08:00,
2013-05-17 19:00:00,68.0,36.0,-100.00,NNW,335,5.0,13.0,31,0.00,,,0.00,,2013-05-17 19:00:00,
2013-05-17 19:10:00,68.0,36.0,-100.00,NNW,335,5.0,13.0,31,0.00,,,0.00,,2013-05-17 19:10:00,
2013-05-17 19:29:00,68.0,40.0,-100.00,East,86,5.0,14.0,36,0.00,,,0.00,,2013-05-17 19:29:00,
2013-05-17 20:00:00,-999.0,-99.9,-100.00,East,86,5.0,14.0,36,0.00,,,0.00,,2013-05-17 20:00:00,
2013-05-17 20:09:00,68.0,40.0,-100.00,East,86,5.0,14.0,36,0.00,,,0.00,,2013-05-17 20:09:00,
2013-05-17 20:20:00,68.0,40.0,-100.00,East,86,5.0,14.0,36,0.00,,,0.00,,2013-05-17 20:20:00,
2013-05-17 20:58:00,69.0,42.0,-100.00,ENE,71,5.0,15.0,38,0.00,,,0.00,,2013-05-17 20:58:00,
2013-05-17 21:07:00,69.0,42.0,-100.00,ENE,71,5.0,15.0,38,0.00,,,0.00,,2013-05-17 21:07:00,
2013-05-17 21:16:00,69.0,42.0,-100.00,ENE,71,5.0,15.0,38,0.00,,,0.00,,2013-05-17 21:16:00,
2013-05-17 21:25:00,69.0,42.0,-100.00,ENE,71,5.0,15.0,38,0.00,,,0.00,,2013-05-17 21:25:00,
2013-05-17 21:58:00,69.0,42.0,-100.00,NE,35,4.0,13.0,38,0.00,,,0.00,,2013-05-17 21:58:00,
2013-05-17 22:06:00,69.0,42.0,-100.00,NE,35,4.0,13.0,38,0.00,,,0.00,,2013-05-17 22:06:00,
2013-05-17 22:17:00,69.0,42.0,-100.00,NE,35,4.0,13.0,38,0.00,,,0.00,,2013-05-17 22:17:00,
2013-05-17 22:28:00,69.0,42.0,-100.00,NE,35,4.0,13.0,38,0.00,,,0.00,,2013-05-17 22:28:00,
2013-05-17 22:55:00,68.0,41.0,-100.00,SSW,207,5.0,15.0,37,0.00,,,0.00,,2013-05-17 22:55:00,
2013-05-17 23:04:00,68.0,41.0,-100.00,SSW,207,5.0,15.0,37,0.00,,,0.00,,2013-05-17 23:04:00,
2013-05-17 23:13:00,68.0,41.0,-100.00,SSW,207,5.0,15.0,37,0.00,,,0.00,,2013-05-17 23:13:00,
2013-05-17 23:23:00,68.0,41.0,-100.00,SSW,207,5.0,15.0,37,0.00,,,0.00,,2013-05-17 23:23:00,
2013-05-17 23:54:00,67.0,43.0,-100.00,WSW,240,5.0,14.0,41,0.00,,,0.00,,2013-05-17 23:54:00,